Time;durP1;ratioP1;P1;durP2;ratioP2;P2;SDS_P1;SDS_P2;PMS_P1;PMS_P2;Temp;Humidity;BMP_temperature;BMP_pressure;BME280_temperature;BME280_humidity;BME280_pressure;Samples;Min_cycle;Max_cycle;Signal;HPM_P1;HPM_P2
2024/01/16 00:02:03;;;;;;;4.47;4.07;;;;;;;-0.59;100.00;94690.41;7400679;19;20382;-87
2024/01/16 00:04:31;;;;;;;5.47;3.67;;;;;;;-0.96;100.00;94657.44;7400711;19;20397;-88
2024/01/16 00:06:58;;;;;;;4.30;3.90;;;;;;;-0.26;100.00;94740.44;7400375;19;20420;-88
2024/01/16 00:09:26;;;;;;;3.87;3.50;;;;;;;-0.95;100.00;94658.19;7400665;19;20380;-88
2024/01/16 00:11:53;;;;;;;7.73;4.37;;;;;;;-0.99;100.00;94663.09;7402028;19;20369;-88
2024/01/16 00:14:21;;;;;;;7.03;4.40;;;;;;;-0.24;100.00;94767.75;7400303;19;20364;-88
2024/01/16 00:16:48;;;;;;;11.20;6.10;;;;;;;-0.05;100.00;94817.59;7401892;19;20377;-88
2024/01/16 00:19:16;;;;;;;9.10;6.60;;;;;;;-0.73;100.00;94711.88;7399590;19;20870;-88
2024/01/16 00:21:47;;;;;;;4.23;3.83;;;;;;;-0.55;100.00;94739.59;7398448;19;20491;-88
2024/01/16 00:24:14;;;;;;;5.37;4.83;;;;;;;-1.59;100.00;94597.31;7399879;19;20385;-88
2024/01/16 00:26:42;;;;;;;7.23;4.47;;;;;;;-1.08;100.00;94661.34;7399658;19;20396;-88
2024/01/16 00:29:12;;;;;;;9.63;5.10;;;;;;;-1.14;100.00;94673.47;7399996;19;20468;-88
2024/01/16 00:31:39;;;;;;;8.73;6.30;;;;;;;-1.13;100.00;94677.56;7398565;19;20880;-88
2024/01/16 00:34:07;;;;;;;3.50;3.20;;;;;;;-1.31;100.00;94637.78;7398205;19;20410;-89
2024/01/16 00:36:35;;;;;;;7.90;5.00;;;;;;;-0.81;100.00;94720.16;7399453;19;20456;-88
2024/01/16 00:39:03;;;;;;;3.10;2.80;;;;;;;-1.16;100.00;94685.84;7399461;19;20373;-88
2024/01/16 00:41:30;;;;;;;5.50;4.20;;;;;;;-0.57;100.00;94762.28;7397393;19;20416;-88
2024/01/16 00:43:58;;;;;;;2.90;2.40;;;;;;;-0.24;100.00;94847.63;7396998;19;20410;-88
2024/01/16 00:46:25;;;;;;;4.37;3.50;;;;;;;-0.55;100.00;94775.66;7399327;19;20373;-89
2024/01/16 00:49:01;;;;;;;4.53;4.23;;;;;;;0.24;100.00;94901.00;7399407;19;20692;-88
2024/01/16 00:51:32;;;;;;;6.03;5.13;;;;;;;-0.60;100.00;94796.28;7400528;19;20360;-89
2024/01/16 00:53:59;;;;;;;4.30;3.90;;;;;;;-1.45;100.00;94644.56;7396959;19;20397;-89
2024/01/16 00:56:32;;;;;;;6.03;5.47;;;;;;;-0.22;100.00;94822.38;7398816;19;20397;-88
2024/01/16 00:58:59;;;;;;;2.30;2.17;;;;;;;-1.03;100.00;94695.56;7398582;19;20467;-89
2024/01/16 01:01:27;;;;;;;7.30;4.90;;;;;;;-0.77;100.00;94754.66;7396935;19;20889;-89
2024/01/16 01:03:54;;;;;;;4.60;3.90;;;;;;;0.03;100.00;94887.44;7397270;19;20421;-88
2024/01/16 01:06:22;;;;;;;4.67;4.20;;;;;;;-0.70;100.00;94776.50;7398349;19;20920;-88
2024/01/16 01:08:49;;;;;;;8.93;4.93;;;;;;;-0.39;100.00;94827.88;7398510;19;20386;-89
2024/01/16 01:11:17;;;;;;;4.60;4.20;;;;;;;-0.56;100.00;94807.59;7398303;19;20368;-89
2024/01/16 01:13:44;;;;;;;4.47;4.07;;;;;;;-1.05;100.00;94728.50;7397103;19;20417;-89
2024/01/16 01:16:11;;;;;;;2.87;2.67;;;;;;;-1.02;100.00;94730.56;7398428;19;20381;-90
2024/01/16 01:18:39;;;;;;;4.37;3.37;;;;;;;-1.38;100.00;94699.03;7398510;19;20412;-88
2024/01/16 01:21:06;;;;;;;3.50;2.53;;;;;;;-0.96;100.00;94759.63;7395832;19;20388;-88
2024/01/16 01:23:33;;;;;;;3.23;2.50;;;;;;;-1.08;100.00;94739.34;7396640;19;20918;-89
2024/01/16 01:26:01;;;;;;;4.00;3.40;;;;;;;-0.71;100.00;94810.22;7398291;19;20397;-88
2024/01/16 01:28:29;;;;;;;6.40;4.07;;;;;;;-0.42;100.00;94841.28;7397805;19;20371;-89
2024/01/16 01:30:56;;;;;;;3.30;2.30;;;;;;;-1.50;100.00;94685.75;7398324;19;20657;-88
2024/01/16 01:33:24;;;;;;;5.33;3.07;;;;;;;-1.18;100.00;94729.06;7397207;19;20421;-90
2024/01/16 01:35:51;;;;;;;6.17;3.63;;;;;;;-0.43;100.00;94834.59;7397881;19;20676;-89
2024/01/16 01:38:20;;;;;;;6.70;4.33;;;;;;;-0.42;100.00;94846.44;7399656;19;20385;-88
2024/01/16 01:40:47;;;;;;;3.67;2.70;;;;;;;-0.26;100.00;94871.09;7396490;19;20377;-88
2024/01/16 01:43:23;;;;;;;4.70;2.90;;;;;;;-1.05;100.00;94750.91;7395127;19;20425;-88
2024/01/16 01:46:18;;;;;;;5.80;3.50;;;;;;;-1.46;100.00;94673.91;7397822;19;20361;-89
2024/01/16 01:48:50;;;;;;;3.67;3.37;;;;;;;-0.00;100.00;94936.19;7397184;19;20448;-89
2024/01/16 01:51:18;;;;;;;6.10;3.60;;;;;;;-0.08;100.00;94905.81;7398057;19;20849;-88
2024/01/16 01:53:49;;;;;;;4.40;2.70;;;;;;;-0.63;100.00;94817.41;7395884;19;20926;-89
2024/01/16 01:56:19;;;;;;;4.07;3.63;;;;;;;-0.88;100.00;94813.91;7397682;19;20385;-89
2024/01/16 01:58:54;;;;;;;3.53;3.07;;;;;;;-1.02;100.00;94770.97;7396870;19;20381;-89
2024/01/16 02:01:22;;;;;;;4.90;4.40;;;;;;;-0.32;100.00;94879.88;7396271;19;20368;-89
2024/01/16 02:03:52;;;;;;;3.07;2.83;;;;;;;-0.86;100.00;94798.97;7395584;19;20376;-88
2024/01/16 02:06:19;;;;;;;4.20;3.80;;;;;;;-0.38;100.00;94873.22;7396998;19;20369;-89
2024/01/16 02:08:47;;;;;;;3.10;2.80;;;;;;;-1.37;100.00;94715.25;7396662;19;20401;-89
2024/01/16 02:11:14;;;;;;;5.93;4.27;;;;;;;-0.81;100.00;94818.00;7396391;19;20376;-89
2024/01/16 02:13:42;;;;;;;6.80;3.37;;;;;;;-1.44;100.00;94727.66;7395241;19;20467;-89
2024/01/16 02:16:23;;;;;;;4.30;2.73;;;;;;;0.31;100.00;94972.91;7397850;19;20357;-88
2024/01/16 02:18:52;;;;;;;6.97;2.80;;;;;;;-0.15;100.00;94900.19;7401435;19;20381;-88
2024/01/16 02:21:28;;;;;;;2.37;1.53;;;;;;;-0.31;100.00;94895.09;7395487;19;20383;-90
2024/01/16 02:23:55;;;;;;;12.30;4.77;;;;;;;-1.10;100.00;94774.88;7396735;19;20396;-91
2024/01/16 02:26:23;;;;;;;3.73;2.70;;;;;;;-0.46;100.00;94868.59;7395926;19;20388;-89
2024/01/16 02:28:52;;;;;;;4.10;2.60;;;;;;;-1.04;100.00;94794.41;7395613;19;20377;-88
2024/01/16 02:31:20;;;;;;;2.30;2.10;;;;;;;-0.91;100.00;94805.94;7397915;19;20372;-89
2024/01/16 02:33:47;;;;;;;3.33;2.63;;;;;;;-0.89;100.00;94814.94;7394361;19;20415;-89
2024/01/16 02:36:15;;;;;;;10.77;4.97;;;;;;;-1.00;100.00;94800.56;7396552;19;20388;-89
2024/01/16 02:38:42;;;;;;;10.47;4.43;;;;;;;-0.85;100.00;94828.06;7395942;19;20381;-89
2024/01/16 02:41:15;;;;;;;3.40;3.10;;;;;;;-0.28;100.00;94894.56;7394967;19;20377;-88
2024/01/16 02:43:44;;;;;;;3.57;3.27;;;;;;;-0.19;100.00;94912.81;7394538;19;20405;-89
2024/01/16 02:46:11;;;;;;;2.90;2.53;;;;;;;-0.35;100.00;94896.66;7396075;19;20398;-89
2024/01/16 02:48:39;;;;;;;6.30;4.00;;;;;;;-1.36;100.00;94745.09;7395257;19;20381;-89
2024/01/16 02:51:06;;;;;;;4.30;3.87;;;;;;;-0.75;100.00;94829.81;7395784;19;20369;-89
2024/01/16 02:53:34;;;;;;;4.63;3.27;;;;;;;-0.74;100.00;94845.00;7394964;19;20440;-90
2024/01/16 02:56:01;;;;;;;2.87;2.50;;;;;;;-1.48;100.00;94738.47;7401954;19;20747;-91
2024/01/16 02:58:30;;;;;;;5.40;4.50;;;;;;;-1.11;100.00;94782.81;7402553;19;20384;-90
2024/01/16 03:00:58;;;;;;;3.50;3.20;;;;;;;-0.95;100.00;94815.22;7401728;19;20473;-87
2024/01/16 03:03:27;;;;;;;11.33;4.57;;;;;;;-0.87;100.00;94843.75;7400528;19;20404;-88
2024/01/16 03:05:55;;;;;;;2.50;2.30;;;;;;;-1.06;100.00;94817.06;7402346;19;20560;-91
2024/01/16 03:08:23;;;;;;;4.83;4.43;;;;;;;-1.36;100.00;94763.09;7402790;19;20401;-88
2024/01/16 03:10:51;;;;;;;4.13;3.73;;;;;;;-0.41;100.00;94917.56;7402001;19;20399;-90
2024/01/16 03:13:19;;;;;;;2.10;1.90;;;;;;;-0.46;100.00;94904.66;7400237;19;20468;-90
2024/01/16 03:15:47;;;;;;;3.70;3.13;;;;;;;-1.05;100.00;94825.56;7402647;19;20410;-87
2024/01/16 03:18:14;;;;;;;4.77;3.53;;;;;;;-0.45;100.00;94908.78;7402181;19;20739;-89
2024/01/16 03:20:42;;;;;;;8.60;3.73;;;;;;;-0.88;100.00;94842.22;7399488;19;20412;-89
2024/01/16 03:23:10;;;;;;;4.50;4.10;;;;;;;-0.97;100.00;94836.09;7400371;19;20430;-90
2024/01/16 03:25:38;;;;;;;4.60;3.80;;;;;;;-0.49;100.00;94900.81;7403761;19;20866;-90
2024/01/16 03:28:10;;;;;;;7.83;3.73;;;;;;;-0.99;100.00;94852.81;7401867;19;20391;-89
2024/01/16 03:30:37;;;;;;;4.43;4.03;;;;;;;-0.63;100.00;94905.75;7402050;19;20392;-90
2024/01/16 03:33:05;;;;;;;7.43;4.27;;;;;;;-0.40;100.00;94944.88;7400825;19;20424;-89
2024/01/16 03:35:33;;;;;;;8.67;4.70;;;;;;;-1.09;100.00;94827.88;7401771;19;20404;-89
2024/01/16 03:38:01;;;;;;;10.47;4.77;;;;;;;-0.08;100.00;94965.88;7401281;19;20397;-90
2024/01/16 03:40:33;;;;;;;5.27;3.90;;;;;;;-0.87;100.00;94869.50;7402012;19;20380;-89
2024/01/16 03:43:01;;;;;;;4.30;3.40;;;;;;;-0.77;100.00;94878.25;7400338;19;20424;-89
2024/01/16 03:45:29;;;;;;;7.67;5.33;;;;;;;-1.56;100.00;94782.72;7401665;19;20375;-89
2024/01/16 03:47:56;;;;;;;5.77;4.00;;;;;;;-0.88;100.00;94846.59;7400843;19;20391;-90
2024/01/16 03:50:24;;;;;;;4.43;4.03;;;;;;;-0.13;100.00;94975.44;7401653;19;20377;-89
2024/01/16 03:52:52;;;;;;;4.80;3.50;;;;;;;-0.41;100.00;94925.28;7400588;19;20416;-90
2024/01/16 03:55:19;;;;;;;4.93;3.10;;;;;;;-1.39;100.00;94789.34;7402442;19;20376;-90
2024/01/16 03:57:46;;;;;;;5.90;3.80;;;;;;;-1.15;100.00;94836.63;7400964;19;20385;-89
2024/01/16 04:00:14;;;;;;;3.70;3.37;;;;;;;-0.67;100.00;94909.13;7400496;19;20406;-89
2024/01/16 04:02:41;;;;;;;3.20;2.90;;;;;;;-0.54;100.00;94923.25;7398201;19;20794;-90
2024/01/16 04:05:09;;;;;;;2.57;2.37;;;;;;;-0.28;100.00;94963.38;7399760;19;20349;-90
2024/01/16 04:07:37;;;;;;;5.07;3.20;;;;;;;-1.39;100.00;94799.63;7402494;19;20387;-88
2024/01/16 04:10:07;;;;;;;5.90;4.20;;;;;;;-0.63;100.00;94917.88;7400278;19;20388;-88
2024/01/16 04:12:34;;;;;;;2.57;2.40;;;;;;;-0.85;100.00;94897.56;7400131;19;20416;-88
2024/01/16 04:15:01;;;;;;;7.73;4.53;;;;;;;-0.93;100.00;94896.31;7402582;19;20364;-90
2024/01/16 04:17:29;;;;;;;3.63;3.33;;;;;;;-1.31;100.00;94859.03;7399840;19;20385;-90
2024/01/16 04:19:56;;;;;;;2.77;2.57;;;;;;;-0.75;100.00;94936.19;7398678;19;20484;-88
2024/01/16 04:22:24;;;;;;;2.47;2.27;;;;;;;-1.04;100.00;94897.34;7399310;19;20452;-87
2024/01/16 04:24:51;;;;;;;4.30;3.30;;;;;;;-0.72;100.00;94938.22;7400497;19;20476;-87
2024/01/16 04:27:19;;;;;;;4.60;4.20;;;;;;;-0.75;100.00;94937.97;7401916;19;20373;-90
2024/01/16 04:29:48;;;;;;;5.60;4.03;;;;;;;-1.30;100.00;94857.25;7399786;19;20392;-90
2024/01/16 04:32:16;;;;;;;4.87;4.37;;;;;;;-0.93;100.00;94921.28;7400843;19;20694;-89
2024/01/16 04:34:44;;;;;;;7.03;5.70;;;;;;;-1.04;100.00;94891.44;7400035;19;20362;-87
2024/01/16 04:37:11;;;;;;;4.60;3.60;;;;;;;-1.22;100.00;94893.53;7399560;19;20360;-87
2024/01/16 04:39:38;;;;;;;3.67;2.93;;;;;;;-0.49;100.00;95014.19;7401130;19;20564;-88
2024/01/16 04:42:06;;;;;;;3.33;3.00;;;;;;;-0.70;100.00;94958.59;7397909;19;20855;-87
2024/01/16 04:44:33;;;;;;;9.00;3.43;;;;;;;-1.63;100.00;94825.94;7399222;19;20377;-90
2024/01/16 04:47:01;;;;;;;6.60;2.80;;;;;;;-1.50;100.00;94848.56;7401201;19;20369;-91
2024/01/16 04:49:29;;;;;;;8.03;3.33;;;;;;;-1.32;100.00;94877.31;7399053;19;20377;-88
2024/01/16 04:51:57;;;;;;;8.83;3.10;;;;;;;-1.02;100.00;94943.44;7398741;19;20392;-88
2024/01/16 04:54:24;;;;;;;3.00;2.20;;;;;;;-0.91;100.00;94943.16;7399968;19;20385;-88
2024/01/16 04:56:51;;;;;;;12.40;9.23;;;;;;;-0.77;100.00;94970.94;7399848;19;20365;-90
2024/01/16 04:59:19;;;;;;;16.13;11.10;;;;;;;-1.47;100.00;94855.75;7398686;19;20881;-88
2024/01/16 05:01:46;;;;;;;38.53;23.73;;;;;;;-0.89;100.00;94953.97;7398313;19;20410;-90
2024/01/16 05:04:14;;;;;;;35.77;21.93;;;;;;;-1.17;100.00;94916.66;7396630;19;20914;-89
2024/01/16 05:06:41;;;;;;;27.63;15.00;;;;;;;-0.85;100.00;94944.69;7399154;19;20381;-87
2024/01/16 05:09:09;;;;;;;12.40;9.73;;;;;;;-1.04;100.00;94923.09;7399107;19;20369;-88
2024/01/16 05:11:36;;;;;;;46.00;25.33;;;;;;;-1.26;100.00;94879.63;7399722;19;20369;-89
2024/01/16 05:14:04;;;;;;;9.43;8.53;;;;;;;-0.90;100.00;94931.84;7396343;19;20419;-88
2024/01/16 05:16:31;;;;;;;9.63;8.70;;;;;;;-1.85;100.00;94802.28;7397993;19;20388;-87
2024/01/16 05:18:58;;;;;;;8.37;6.50;;;;;;;-1.16;100.00;94897.63;7398968;19;20853;-89
2024/01/16 05:21:26;;;;;;;5.50;5.00;;;;;;;-1.31;100.00;94871.16;7397876;19;20381;-88
2024/01/16 05:23:53;;;;;;;5.67;5.20;;;;;;;-0.58;100.00;94979.66;7396296;19;20885;-88
2024/01/16 05:26:22;;;;;;;10.20;7.23;;;;;;;-0.75;100.00;94943.13;7397818;19;20353;-89
2024/01/16 05:28:49;;;;;;;12.00;8.20;;;;;;;-1.40;100.00;94842.63;7398100;19;20385;-88
2024/01/16 05:31:17;;;;;;;17.07;11.70;;;;;;;-0.82;100.00;94940.84;7397765;19;20372;-88
2024/01/16 05:33:44;;;;;;;15.53;9.53;;;;;;;-1.41;100.00;94853.94;7396479;19;20967;-91
2024/01/16 05:36:12;;;;;;;12.10;7.03;;;;;;;-0.57;100.00;94989.75;7397904;19;20362;-88
2024/01/16 05:38:39;;;;;;;16.80;10.13;;;;;;;-0.62;100.00;94973.50;7398113;19;20712;-90
2024/01/16 05:41:06;;;;;;;11.93;7.50;;;;;;;-0.96;100.00;94929.53;7397883;19;20391;-90
2024/01/16 05:43:34;;;;;;;5.17;4.67;;;;;;;-0.54;100.00;95010.84;7395792;19;20425;-91
2024/01/16 05:46:01;;;;;;;17.97;10.57;;;;;;;-1.46;100.00;94861.66;7397060;19;20373;-88
2024/01/16 05:48:29;;;;;;;5.87;4.40;;;;;;;-0.67;100.00;94982.03;7396977;19;20392;-87
2024/01/16 05:50:56;;;;;;;14.60;8.77;;;;;;;-1.29;100.00;94895.56;7397849;19;20460;-88
2024/01/16 05:53:24;;;;;;;13.07;7.53;;;;;;;-1.25;100.00;94883.72;7396168;19;20948;-88
2024/01/16 05:55:53;;;;;;;12.93;9.07;;;;;;;-0.88;100.00;94955.50;7397578;19;20365;-89
2024/01/16 05:58:35;;;;;;;15.43;11.20;;;;;;;-1.18;100.00;94914.38;7398548;19;20388;-88
2024/01/16 06:01:04;;;;;;;9.53;6.53;;;;;;;-1.70;100.00;94819.50;7396866;19;20385;-88
2024/01/16 06:03:31;;;;;;;8.90;6.63;;;;;;;-0.76;100.00;94980.22;7394890;19;20408;-88
2024/01/16 06:05:59;;;;;;;6.47;5.93;;;;;;;-0.42;100.00;95021.66;7397326;19;20397;-87
2024/01/16 06:08:37;;;;;;;4.67;4.27;;;;;;;-0.53;100.00;94995.13;7398008;19;20391;-94
2024/01/16 06:11:05;;;;;;;10.13;8.80;;;;;;;-0.51;100.00;94998.22;7395896;19;20878;-86
2024/01/16 06:13:32;;;;;;;6.70;4.80;;;;;;;0.03;100.00;95082.66;7393567;19;20762;-88
2024/01/16 06:16:00;;;;;;;4.60;4.20;;;;;;;-0.48;100.00;95009.81;7396649;19;20369;-88
2024/01/16 06:18:27;;;;;;;5.13;4.73;;;;;;;-0.22;100.00;95052.53;7396154;19;20384;-87
2024/01/16 06:20:55;;;;;;;4.80;3.93;;;;;;;-0.62;100.00;95002.59;7395019;19;20720;-88
2024/01/16 06:23:22;;;;;;;5.00;4.60;;;;;;;-0.60;100.00;95012.66;7396369;19;20684;-88
2024/01/16 06:25:50;;;;;;;6.73;3.40;;;;;;;-0.91;100.00;94973.28;7396186;19;20694;-88
2024/01/16 06:28:18;;;;;;;4.87;4.37;;;;;;;-0.52;100.00;95031.97;7396691;19;20437;-87
2024/01/16 06:30:45;;;;;;;5.80;4.10;;;;;;;-0.27;100.00;95076.53;7403594;19;20789;-87
2024/01/16 06:33:13;;;;;;;4.90;3.37;;;;;;;-0.23;100.00;95073.41;7401828;19;20492;-88
2024/01/16 06:35:40;;;;;;;3.80;3.50;;;;;;;-0.71;100.00;95006.75;7403887;19;20361;-87
2024/01/16 06:38:08;;;;;;;7.73;6.10;;;;;;;-0.44;100.00;95055.41;7403942;19;20677;-87
2024/01/16 06:40:35;;;;;;;8.70;5.63;;;;;;;-0.81;100.00;94996.47;7403081;19;20376;-87
2024/01/16 06:43:03;;;;;;;8.20;5.13;;;;;;;-0.59;100.00;95035.56;7401246;19;20406;-88
2024/01/16 06:45:30;;;;;;;6.00;5.40;;;;;;;-0.69;100.00;95017.56;7403918;19;20392;-88
2024/01/16 06:47:58;;;;;;;10.57;8.83;;;;;;;-0.59;100.00;95040.72;7403018;19;20427;-88
2024/01/16 06:50:25;;;;;;;17.47;13.30;;;;;;;-0.50;100.00;95040.97;7403492;19;20384;-88
2024/01/16 06:52:52;;;;;;;11.07;9.97;;;;;;;-0.37;100.00;95058.50;7402168;19;20423;-88
2024/01/16 06:55:20;;;;;;;10.77;9.73;;;;;;;-0.41;100.00;95067.00;7402537;19;20411;-87
2024/01/16 06:57:47;;;;;;;12.23;8.40;;;;;;;-0.52;100.00;95037.13;7402605;19;20877;-87
2024/01/16 07:00:15;;;;;;;15.40;11.33;;;;;;;-0.39;100.00;95070.09;7402997;19;20751;-88
2024/01/16 07:02:43;;;;;;;15.13;9.30;;;;;;;-0.39;100.00;95060.56;7401319;19;20424;-86
2024/01/16 07:05:12;;;;;;;8.43;6.63;;;;;;;-0.71;100.00;95013.69;7403961;19;20372;-88
2024/01/16 07:07:41;;;;;;;22.37;18.27;;;;;;;-0.40;100.00;95063.41;7402203;19;20412;-87
2024/01/16 07:10:13;;;;;;;29.93;19.07;;;;;;;-0.28;100.00;95082.72;7402093;19;20381;-87
2024/01/16 07:12:40;;;;;;;25.60;17.63;;;;;;;-0.11;100.00;95122.91;7401296;19;20424;-87
2024/01/16 07:15:08;;;;;;;17.20;10.43;;;;;;;-0.20;100.00;95108.97;7402203;19;20380;-87
2024/01/16 07:17:35;;;;;;;10.27;7.87;;;;;;;-0.40;100.00;95065.97;7401995;19;20388;-87
2024/01/16 07:20:03;;;;;;;14.97;12.60;;;;;;;-0.44;100.00;95068.31;7400329;19;20420;-87
2024/01/16 07:22:31;;;;;;;15.27;8.90;;;;;;;-0.15;100.00;95122.66;7401030;19;20384;-87
2024/01/16 07:24:58;;;;;;;27.37;16.63;;;;;;;-0.25;100.00;95102.03;7401853;19;20386;-88
2024/01/16 07:27:26;;;;;;;9.37;7.23;;;;;;;-0.48;100.00;95071.63;7402072;19;20369;-88
2024/01/16 07:29:53;;;;;;;10.10;8.33;;;;;;;-1.01;100.00;95010.09;7401948;19;20373;-88
2024/01/16 07:32:21;;;;;;;8.83;7.27;;;;;;;-0.59;100.00;95057.97;7401189;19;20487;-88
2024/01/16 07:34:48;;;;;;;10.27;8.50;;;;;;;-0.44;100.00;95095.84;7401588;19;20477;-88
2024/01/16 07:37:17;;;;;;;11.73;7.50;;;;;;;-0.29;100.00;95109.53;7401356;19;20364;-87
2024/01/16 07:39:45;;;;;;;8.83;7.30;;;;;;;-0.52;100.00;95081.69;7400152;19;20369;-88
2024/01/16 07:42:13;;;;;;;5.60;4.57;;;;;;;-0.68;100.00;95069.84;7400791;19;20412;-88
2024/01/16 07:44:40;;;;;;;10.10;8.33;;;;;;;-0.43;100.00;95113.66;7402091;19;20380;-88
2024/01/16 07:47:08;;;;;;;11.00;6.73;;;;;;;-0.86;100.00;95035.84;7401576;19;20377;-88
2024/01/16 07:49:35;;;;;;;10.83;8.70;;;;;;;-0.44;100.00;95106.16;7401371;19;20396;-87
2024/01/16 07:52:03;;;;;;;7.93;7.17;;;;;;;-0.51;100.00;95096.13;7400912;19;20385;-87
2024/01/16 07:54:31;;;;;;;8.57;7.80;;;;;;;-0.66;100.00;95068.56;7401631;19;20389;-87
2024/01/16 07:56:59;;;;;;;10.40;8.23;;;;;;;-0.52;100.00;95086.06;7400746;19;20397;-86
2024/01/16 07:59:27;;;;;;;13.77;11.13;;;;;;;-0.50;100.00;95095.09;7401003;19;20888;-87
2024/01/16 08:01:54;;;;;;;13.50;10.50;;;;;;;-0.30;100.00;95125.25;7400371;19;20378;-87
2024/01/16 08:04:22;;;;;;;16.27;11.57;;;;;;;-0.20;100.00;95145.06;7398818;19;20408;-87
2024/01/16 08:06:49;;;;;;;8.97;7.23;;;;;;;-0.35;100.00;95110.53;7400997;19;20472;-88
2024/01/16 08:09:17;;;;;;;13.10;11.73;;;;;;;-0.41;100.00;95085.81;7400447;19;20379;-86
2024/01/16 08:11:45;;;;;;;7.30;5.37;;;;;;;-0.72;100.00;95045.63;7400994;19;20364;-87
2024/01/16 08:14:12;;;;;;;9.73;7.50;;;;;;;-0.03;100.00;95154.09;7397580;19;20425;-87
2024/01/16 08:16:39;;;;;;;10.00;7.90;;;;;;;-0.29;100.00;95119.06;7400076;19;20398;-87
2024/01/16 08:19:07;;;;;;;7.33;6.63;;;;;;;-0.34;100.00;95106.94;7399373;19;20385;-87
2024/01/16 08:21:35;;;;;;;8.40;7.23;;;;;;;-0.50;100.00;95077.06;7400320;19;20389;-87
2024/01/16 08:24:02;;;;;;;7.50;5.10;;;;;;;-0.59;100.00;95061.34;7397386;19;20448;-87
2024/01/16 08:26:30;;;;;;;7.63;6.47;;;;;;;-0.54;100.00;95062.38;7400600;19;20392;-87
2024/01/16 08:28:58;;;;;;;10.17;6.53;;;;;;;-0.09;100.00;95115.66;7399604;19;20853;-87
2024/01/16 08:31:25;;;;;;;9.03;7.00;;;;;;;0.14;100.00;95156.38;7399790;19;20392;-87
2024/01/16 08:33:55;;;;;;;8.37;6.03;;;;;;;0.10;100.00;95150.22;7398268;19;20420;-87
2024/01/16 08:36:23;;;;;;;10.60;7.67;;;;;;;-0.25;100.00;95084.00;7399878;19;20456;-87
2024/01/16 08:38:51;;;;;;;8.93;7.53;;;;;;;-0.37;100.00;95055.91;7399685;19;20385;-86
2024/01/16 08:41:18;;;;;;;9.37;6.87;;;;;;;-0.36;100.00;95075.50;7400258;19;20391;-87
2024/01/16 08:43:46;;;;;;;7.37;5.80;;;;;;;-0.09;100.00;95123.41;7397859;19;20423;-87
2024/01/16 08:46:13;;;;;;;8.93;8.03;;;;;;;-0.30;100.00;95092.50;7399496;19;20750;-87
2024/01/16 08:48:41;;;;;;;10.03;9.03;;;;;;;-0.41;100.00;95054.91;7398904;19;20870;-86
2024/01/16 08:51:14;;;;;;;10.90;7.13;;;;;;;0.67;100.00;95218.72;7398625;19;20703;-86
2024/01/16 08:53:42;;;;;;;7.10;6.40;;;;;;;0.26;100.00;95158.69;7396131;19;20444;-86
2024/01/16 08:56:12;;;;;;;6.03;5.50;;;;;;;0.28;100.00;95157.38;7399164;19;20408;-86
2024/01/16 08:58:40;;;;;;;6.97;4.87;;;;;;;-0.14;100.00;95108.72;7398680;19;20929;-87
2024/01/16 09:01:08;;;;;;;12.73;8.83;;;;;;;-0.47;100.00;95055.91;7399154;19;20448;-91
2024/01/16 09:03:36;;;;;;;11.30;6.67;;;;;;;0.12;100.00;95153.28;7400321;19;20413;-92
2024/01/16 09:06:03;;;;;;;8.70;7.60;;;;;;;-0.98;100.00;94990.78;7400192;19;20355;-91
2024/01/16 09:08:31;;;;;;;12.83;7.20;;;;;;;-0.67;100.00;95027.59;7399792;19;20409;-91
2024/01/16 09:10:59;;;;;;;12.60;9.40;;;;;;;-0.07;100.00;95118.75;7399550;19;20443;-91
2024/01/16 09:13:27;;;;;;;8.63;7.73;;;;;;;-0.20;100.00;95104.59;7398923;19;20417;-90
2024/01/16 09:15:54;;;;;;;10.03;8.07;;;;;;;-0.42;100.00;95062.88;7399943;19;20360;-92
2024/01/16 09:18:22;;;;;;;12.50;10.60;;;;;;;-0.16;100.00;95100.47;7419640;19;20436;-88
2024/01/16 09:20:50;;;;;;;8.40;6.50;;;;;;;0.36;100.00;95168.19;7428229;19;20424;-88
2024/01/16 09:23:17;;;;;;;13.43;10.83;;;;;;;-0.02;100.00;95121.34;7411892;19;20890;-92
2024/01/16 09:25:45;;;;;;;10.10;7.70;;;;;;;0.27;100.00;95178.28;7401924;19;20385;-92
2024/01/16 09:28:15;;;;;;;16.40;13.70;;;;;;;-0.06;100.00;95131.38;7399003;19;20408;-91
2024/01/16 09:30:42;;;;;;;42.93;31.87;;;;;;;0.21;100.00;95177.50;7399186;19;20468;-91
2024/01/16 09:33:11;;;;;;;13.60;11.93;;;;;;;-0.22;100.00;95100.75;7397746;19;20397;-91
2024/01/16 09:35:39;;;;;;;14.63;11.53;;;;;;;0.10;100.00;95163.09;7398231;19;20380;-91
2024/01/16 09:38:06;;;;;;;160.17;97.73;;;;;;;-0.26;100.00;95119.31;7400231;19;20393;-91
2024/01/16 09:40:35;;;;;;;10.23;8.40;;;;;;;-0.66;100.00;95036.88;7398699;19;20389;-90
2024/01/16 09:43:04;;;;;;;31.17;23.80;;;;;;;0.36;100.00;95205.09;7397378;19;20901;-91
2024/01/16 09:45:33;;;;;;;11.70;10.50;;;;;;;-0.24;100.00;95113.88;7399842;19;20857;-91
2024/01/16 09:48:02;;;;;;;69.37;48.67;;;;;;;0.40;100.00;95192.47;7398598;19;20380;-91
2024/01/16 09:50:31;;;;;;;18.70;14.13;;;;;;;0.52;100.00;95223.91;7399316;19;20385;-91
2024/01/16 09:52:58;;;;;;;10.67;9.00;;;;;;;0.02;100.00;95155.88;7396979;19;20401;-92
2024/01/16 09:55:26;;;;;;;13.67;12.30;;;;;;;-0.02;100.00;95139.41;7398831;19;20373;-92
2024/01/16 09:57:54;;;;;;;12.47;8.43;;;;;;;0.54;100.00;95206.38;7398194;19;20377;-92
2024/01/16 10:00:25;;;;;;;20.60;10.70;;;;;;;0.59;100.00;95189.03;7398116;19;20499;-93
2024/01/16 10:02:53;;;;;;;12.13;9.10;;;;;;;-0.05;100.00;95081.34;7396420;19;20400;-92
2024/01/16 10:05:20;;;;;;;11.20;8.23;;;;;;;0.12;100.00;95100.94;7398351;19;20372;-92
2024/01/16 10:07:51;;;;;;;11.97;6.67;;;;;;;0.32;100.00;95137.75;7397768;19;20388;-91
2024/01/16 10:10:20;;;;;;;5.43;4.60;;;;;;;-0.31;100.00;95054.88;7397784;19;20381;-92
2024/01/16 10:13:04;;;;;;;14.77;7.67;;;;;;;0.06;100.00;95102.75;7398530;19;20393;-93
2024/01/16 10:15:33;;;;;;;12.23;6.40;;;;;;;0.86;100.00;95242.16;7398302;19;20395;-93
2024/01/16 10:18:00;;;;;;;8.37;6.23;;;;;;;0.21;100.00;95138.03;7397686;19;20384;-92
2024/01/16 10:20:33;;;;;;;9.90;7.37;;;;;;;0.02;100.00;95101.72;7396583;19;20401;-92
2024/01/16 10:23:03;;;;;;;12.37;7.60;;;;;;;0.94;100.00;95220.97;7396735;19;20760;-91
2024/01/16 10:25:31;;;;;;;14.27;7.10;;;;;;;0.74;100.00;95179.69;7397912;19;20392;-92
2024/01/16 10:28:07;;;;;;;8.53;7.63;;;;;;;0.37;100.00;95113.00;7397836;19;20371;-92
2024/01/16 10:30:35;;;;;;;10.50;7.37;;;;;;;0.79;100.00;95177.13;7397316;19;20395;-91
2024/01/16 10:33:17;;;;;;;8.67;5.27;;;;;;;0.56;100.00;95134.59;7396394;19;20900;-92
2024/01/16 10:35:45;;;;;;;10.33;6.13;;;;;;;0.18;100.00;95074.09;7396744;19;20374;-92
2024/01/16 10:38:21;;;;;;;6.40;5.80;;;;;;;0.11;100.00;95048.59;7396848;19;20878;-91
2024/01/16 10:41:08;;;;;;;9.00;7.10;;;;;;;0.62;100.00;95130.94;7397294;19;20365;-92
2024/01/16 10:43:37;;;;;;;16.17;13.93;;;;;;;0.90;100.00;95145.84;7395900;19;20445;-91
2024/01/16 10:46:17;;;;;;;11.70;6.90;;;;;;;1.12;100.00;95171.28;7396609;19;20369;-92
2024/01/16 10:49:03;;;;;;;26.40;15.47;;;;;;;0.60;100.00;95082.19;7396917;19;20873;-91
2024/01/16 10:51:32;;;;;;;29.13;21.13;;;;;;;1.39;100.00;95201.88;7397599;19;20365;-91
2024/01/16 10:54:08;;;;;;;11.17;5.53;;;;;;;0.50;100.00;95096.97;7395279;19;20405;-92
2024/01/16 10:56:36;;;;;;;21.70;16.60;;;;;;;1.20;100.00;95214.66;7397491;19;20376;-92
2024/01/16 10:59:16;;;;;;;17.00;13.87;;;;;;;0.76;100.00;95147.44;7398797;19;20410;-91
2024/01/16 11:01:51;;;;;;;8.23;7.43;;;;;;;1.09;100.00;95191.72;7396331;19;20456;-92
2024/01/16 11:04:21;;;;;;;6.20;5.60;;;;;;;0.30;100.00;95069.41;7395120;19;20368;-92
2024/01/16 11:06:52;;;;;;;6.70;6.00;;;;;;;0.74;100.00;95159.81;7396231;19;20374;-92
2024/01/16 11:09:24;;;;;;;4.33;3.93;;;;;;;0.60;100.00;95122.69;7396352;19;20447;-92
2024/01/16 11:11:54;;;;;;;5.23;4.73;;;;;;;0.10;100.00;95057.38;7396477;19;20389;-93
2024/01/16 11:14:25;;;;;;;5.20;4.50;;;;;;;0.87;100.00;95156.66;7395942;19;20376;-93
2024/01/16 11:16:53;;;;;;;6.43;5.00;;;;;;;0.67;100.00;95096.63;7402110;19;20373;-91
2024/01/16 11:19:21;;;;;;;4.93;4.53;;;;;;;0.28;100.00;95028.41;7403541;19;20419;-91
2024/01/16 11:22:09;;;;;;;6.20;5.60;;;;;;;0.60;100.00;95058.19;7402767;19;20380;-91
2024/01/16 11:24:37;;;;;;;6.47;5.67;;;;;;;1.28;100.00;95146.13;7401429;19;20684;-91
2024/01/16 11:27:04;;;;;;;10.30;5.10;;;;;;;-0.06;100.00;94938.00;7403866;19;20384;-92
2024/01/16 11:29:32;;;;;;;8.67;4.33;;;;;;;1.57;100.00;95212.66;7403576;19;20400;-91